Time;durP1;ratioP1;P1;durP2;ratioP2;P2;SDS_P1;SDS_P2;PMS_P1;PMS_P2;Temp;Humidity;BMP_temperature;BMP_pressure;BME280_temperature;BME280_humidity;BME280_pressure;Samples;Min_cycle;Max_cycle;Signal;HPM_P1;HPM_P2
2022/09/17 00:01:03;;;;;;;10.60;2.50;;;;;;;27.27;35.57;101999.88;4179151;28;20041;-63
2022/09/17 00:03:08;;;;;;;7.72;2.10;;;;;;;27.27;35.40;102008.28;4180670;28;20095;-63
2022/09/17 00:05:10;;;;;;;5.82;2.20;;;;;;;27.21;35.21;101996.25;4207026;28;20069;-61
2022/09/17 00:07:16;;;;;;;7.75;2.15;;;;;;;27.27;35.47;102005.47;4198626;28;20090;-61
2022/09/17 00:09:18;;;;;;;3.53;1.92;;;;;;;27.23;35.13;101999.63;4198552;28;20471;-62
2022/09/17 00:11:33;;;;;;;7.90;2.10;;;;;;;27.22;35.35;102009.19;4200254;28;20454;-61
2022/09/17 00:13:38;;;;;;;6.75;2.20;;;;;;;27.22;35.24;102009.19;4200796;28;20105;-61
2022/09/17 00:15:44;;;;;;;6.25;1.85;;;;;;;27.24;35.24;102018.16;4216985;28;20093;-63
2022/09/17 00:17:45;;;;;;;6.38;2.08;;;;;;;27.23;35.11;102012.84;4216453;28;20056;-62
2022/09/17 00:19:48;;;;;;;9.43;1.85;;;;;;;27.22;35.59;102014.81;4216678;28;20108;-63
2022/09/17 00:21:50;;;;;;;15.38;2.85;;;;;;;27.13;35.13;101998.91;4216347;28;20048;-63
2022/09/17 00:24:04;;;;;;;8.48;2.72;;;;;;;27.22;34.95;102030.84;4216597;28;20101;-63
2022/09/17 00:26:23;;;;;;;8.13;2.75;;;;;;;27.15;34.90;102014.31;4216947;28;20052;-61
2022/09/17 00:28:25;;;;;;;6.32;2.60;;;;;;;27.15;35.21;102025.56;4212996;28;20078;-62
2022/09/17 00:30:27;;;;;;;8.05;2.15;;;;;;;27.19;35.27;102031.41;4192646;28;20037;-62
2022/09/17 00:32:28;;;;;;;7.57;2.20;;;;;;;27.18;35.52;102039.03;4182927;28;20537;-62
2022/09/17 00:34:30;;;;;;;4.85;2.15;;;;;;;27.17;35.47;102040.16;4183478;28;20041;-62
2022/09/17 00:36:35;;;;;;;3.90;2.45;;;;;;;27.16;35.19;102030.03;4183573;28;20033;-63
2022/09/17 00:38:39;;;;;;;4.43;2.15;;;;;;;27.16;35.30;102038.47;4185268;28;20053;-62
2022/09/17 00:40:40;;;;;;;3.95;2.42;;;;;;;27.16;35.45;102037.63;4210430;28;20491;-62
2022/09/17 00:42:43;;;;;;;5.72;2.20;;;;;;;26.54;35.60;101948.34;4199163;28;20435;-62
2022/09/17 00:44:49;;;;;;;5.10;2.45;;;;;;;27.07;35.07;102046.66;4199882;28;20044;-63
2022/09/17 00:46:52;;;;;;;4.63;2.08;;;;;;;27.12;35.40;102054.25;4195241;28;20094;-63
2022/09/17 00:48:58;;;;;;;4.90;2.20;;;;;;;27.06;35.29;102044.16;4182674;28;20098;-63
2022/09/17 00:51:00;;;;;;;6.43;2.42;;;;;;;27.11;35.33;102063.81;4183255;28;20032;-63
2022/09/17 00:53:07;;;;;;;5.70;2.40;;;;;;;27.10;35.28;102056.53;4207477;28;20036;-62
2022/09/17 00:55:22;;;;;;;6.25;2.53;;;;;;;27.09;35.31;102063.28;4216200;28;20052;-63
2022/09/17 00:57:27;;;;;;;4.47;3.10;;;;;;;26.93;35.36;102030.81;4216650;28;20480;-63
2022/09/17 00:59:31;;;;;;;5.13;3.38;;;;;;;27.11;35.70;102066.63;4215002;28;20036;-62
2022/09/17 01:01:33;;;;;;;6.53;2.45;;;;;;;27.11;35.63;102075.03;4196781;28;20117;-62
2022/09/17 01:03:35;;;;;;;6.72;2.80;;;;;;;27.10;35.43;102070.56;4198976;28;20094;-62
2022/09/17 01:06:16;;;;;;;3.58;2.92;;;;;;;27.07;35.71;102073.94;4183000;28;20087;-63
2022/09/17 01:08:31;;;;;;;4.60;2.97;;;;;;;27.10;35.37;102081.81;4183148;28;20033;-63
2022/09/17 01:11:01;;;;;;;;;;;;;;;27.08;35.62;102084.06;4183699;28;20107;-63
2022/09/17 01:13:17;;;;;;;6.13;3.25;;;;;;;27.13;35.28;102084.03;4148132;28;19960;-62
2022/09/17 01:15:52;;;;;;;7.35;3.22;;;;;;;27.11;35.28;102091.91;4199054;28;20106;-63
2022/09/17 01:18:03;;;;;;;4.63;3.00;;;;;;;27.11;35.61;102089.09;4199285;28;20456;-63
2022/09/17 01:20:46;;;;;;;6.30;3.35;;;;;;;27.07;35.63;102090.78;4199160;28;20040;-63
2022/09/17 01:23:36;;;;;;;10.13;4.25;;;;;;;26.92;35.91;102082.50;4179519;28;20074;-63
2022/09/17 01:26:02;;;;;;;5.32;3.08;;;;;;;26.92;35.66;102072.09;4147531;28;20032;-63
2022/09/17 01:28:23;;;;;;;4.45;2.90;;;;;;;27.06;35.95;102100.34;4182604;28;20037;-63
2022/09/17 01:30:50;;;;;;;5.57;3.33;;;;;;;27.03;35.93;102107.41;4182437;28;20041;-63
2022/09/17 01:32:59;;;;;;;4.20;2.67;;;;;;;27.06;35.98;102100.34;4151574;28;20102;-63
2022/09/17 01:35:25;;;;;;;8.13;3.35;;;;;;;27.04;35.78;102103.47;4201671;28;20085;-63
2022/09/17 01:37:57;;;;;;;4.93;3.05;;;;;;;27.04;35.90;102105.44;4215433;28;20475;-61
2022/09/17 01:40:04;;;;;;;6.53;3.35;;;;;;;27.02;35.76;102091.66;4179850;28;20118;-61
2022/09/17 01:42:17;;;;;;;5.72;3.30;;;;;;;26.98;36.35;102086.94;4182089;28;20476;-61
2022/09/17 01:44:49;;;;;;;4.72;3.13;;;;;;;27.02;35.86;102082.41;4182447;28;20091;-61
2022/09/17 01:47:05;;;;;;;7.18;3.22;;;;;;;27.02;35.93;102077.63;4182477;28;20064;-61
2022/09/17 01:49:09;;;;;;;7.22;4.03;;;;;;;27.00;36.12;102079.91;4182012;28;20040;-62
2022/09/17 01:51:16;;;;;;;7.68;2.80;;;;;;;27.02;36.18;102093.66;4191622;28;20541;-62
2022/09/17 01:53:23;;;;;;;5.95;3.28;;;;;;;26.83;35.92;102069.09;4189751;28;20116;-62
2022/09/17 01:55:31;;;;;;;7.03;3.60;;;;;;;27.01;35.91;102095.63;4198368;28;20081;-62
2022/09/17 01:57:39;;;;;;;5.47;3.60;;;;;;;26.82;36.11;102067.41;4215069;28;20036;-63
2022/09/17 02:00:01;;;;;;;7.28;4.18;;;;;;;26.82;36.14;102070.22;4181241;28;20037;-63
2022/09/17 02:02:17;;;;;;;4.75;3.47;;;;;;;26.99;35.95;102100.72;4183990;28;20451;-61
2022/09/17 02:04:45;;;;;;;8.38;3.88;;;;;;;26.98;36.10;102109.41;4198620;28;20142;-61
2022/09/17 02:06:52;;;;;;;11.18;4.13;;;;;;;26.88;36.16;102087.03;4192416;28;20040;-63
2022/09/17 02:09:00;;;;;;;10.68;4.57;;;;;;;26.96;36.54;102103.25;4182042;28;20419;-61
2022/09/17 02:11:08;;;;;;;12.27;4.80;;;;;;;26.95;36.71;102101.59;4205764;28;20445;-61
2022/09/17 02:13:30;;;;;;;9.77;4.13;;;;;;;26.95;36.43;102098.78;4184939;28;20078;-60
2022/09/17 02:15:39;;;;;;;9.40;4.45;;;;;;;26.86;36.40;102079.75;4185875;28;20045;-62
2022/09/17 02:17:57;;;;;;;8.75;3.70;;;;;;;26.96;36.79;102094.84;4197715;28;20360;-61
2022/09/17 02:20:00;;;;;;;5.85;3.90;;;;;;;26.90;36.58;102085.63;4187916;28;20048;-61
2022/09/17 02:22:13;;;;;;;5.55;4.00;;;;;;;26.97;36.58;102110.53;4197951;28;20086;-61
2022/09/17 02:24:35;;;;;;;6.28;3.80;;;;;;;26.97;36.67;102107.75;4198213;28;20094;-62
2022/09/17 02:26:44;;;;;;;6.78;3.78;;;;;;;26.99;36.78;102117.56;4212739;28;20097;-62
2022/09/17 02:29:01;;;;;;;9.85;3.70;;;;;;;26.90;36.94;102090.41;4213669;28;20035;-62
2022/09/17 02:31:03;;;;;;;8.40;3.85;;;;;;;27.03;37.02;102106.56;4213450;28;20098;-63
2022/09/17 02:33:08;;;;;;;7.53;3.83;;;;;;;27.03;36.79;102113.03;4214088;28;20093;-62
2022/09/17 02:35:12;;;;;;;5.35;3.25;;;;;;;27.04;36.72;102108.25;4214525;28;20047;-62
2022/09/17 02:37:14;;;;;;;6.18;3.47;;;;;;;27.04;36.60;102105.44;4214860;28;20075;-62
2022/09/17 02:39:16;;;;;;;6.45;3.83;;;;;;;27.05;36.75;102115.53;4214395;28;20105;-62
2022/09/17 02:41:24;;;;;;;5.78;4.00;;;;;;;27.05;37.01;102116.38;4214033;28;20032;-62
2022/09/17 02:43:39;;;;;;;6.97;3.50;;;;;;;27.07;36.85;102104.84;4214563;28;20097;-62
2022/09/17 02:45:58;;;;;;;8.05;3.83;;;;;;;27.08;36.95;102114.97;4214460;28;20037;-62
2022/09/17 02:48:18;;;;;;;5.93;3.72;;;;;;;27.07;37.06;102108.47;4214320;28;20044;-62
2022/09/17 02:50:28;;;;;;;5.70;3.78;;;;;;;27.08;36.91;102098.09;4214022;28;20094;-62
2022/09/17 02:53:05;;;;;;;6.57;3.60;;;;;;;27.05;37.13;102107.09;4213894;28;20113;-61
2022/09/17 02:55:06;;;;;;;;;;;;;;;27.08;36.79;102109.34;4211769;28;20052;-62
2022/09/17 02:57:22;;;;;;;5.20;3.47;;;;;;;27.11;36.93;102108.75;4197574;28;19919;-62
2022/09/17 02:59:41;;;;;;;5.13;3.55;;;;;;;27.12;36.89;102110.44;4197521;28;20093;-63
2022/09/17 03:01:49;;;;;;;7.43;4.32;;;;;;;26.93;37.26;102078.56;4194132;28;20044;-62
2022/09/17 03:03:54;;;;;;;7.85;3.85;;;;;;;27.11;37.30;102108.75;4197886;28;20086;-62
2022/09/17 03:05:56;;;;;;;6.53;3.78;;;;;;;27.11;37.24;102105.94;4197679;28;20036;-61
2022/09/17 03:07:59;;;;;;;4.25;3.42;;;;;;;26.88;36.84;102071.03;4197438;28;20105;-62
2022/09/17 03:10:04;;;;;;;5.10;3.28;;;;;;;27.05;37.10;102095.88;4197426;28;20036;-62
2022/09/17 03:12:06;;;;;;;5.45;3.80;;;;;;;27.09;37.02;102105.41;4197183;28;20037;-62
2022/09/17 03:14:19;;;;;;;4.75;3.42;;;;;;;27.10;37.03;102107.94;4197310;28;20044;-62
2022/09/17 03:16:20;;;;;;;5.75;3.47;;;;;;;27.11;37.19;102103.13;4189865;28;20036;-63
2022/09/17 03:18:25;;;;;;;7.07;3.83;;;;;;;27.13;37.24;102109.31;4197139;28;20415;-63
2022/09/17 03:20:26;;;;;;;4.95;3.42;;;;;;;27.08;37.05;102109.34;4196964;28;20125;-62
2022/09/17 03:22:27;;;;;;;5.97;3.50;;;;;;;27.12;36.97;102104.81;4197285;28;20361;-63
2022/09/17 03:24:29;;;;;;;5.97;3.55;;;;;;;26.89;36.99;102071.84;4197365;28;20113;-63
2022/09/17 03:26:31;;;;;;;4.95;3.30;;;;;;;27.08;37.30;102115.81;4197113;28;20114;-62
2022/09/17 03:28:35;;;;;;;6.93;3.15;;;;;;;27.06;37.31;102112.41;4197206;28;20033;-62
2022/09/17 03:30:38;;;;;;;5.03;3.78;;;;;;;27.04;37.49;102109.09;4197494;28;20170;-63
2022/09/17 03:32:39;;;;;;;4.55;3.40;;;;;;;27.08;37.26;102114.97;4185108;28;20476;-62
2022/09/17 03:34:41;;;;;;;4.57;3.58;;;;;;;27.07;37.28;102110.44;4180438;28;20095;-62
2022/09/17 03:36:42;;;;;;;5.22;3.63;;;;;;;27.08;37.26;102120.56;4180886;28;20033;-62
2022/09/17 03:38:43;;;;;;;5.47;3.60;;;;;;;27.09;37.46;102123.13;4180865;28;20037;-63
2022/09/17 03:41:02;;;;;;;6.80;3.95;;;;;;;27.06;37.59;102123.66;4180571;28;20041;-63
2022/09/17 03:43:04;;;;;;;7.57;4.18;;;;;;;27.09;37.51;102127.91;4179620;28;20087;-62
2022/09/17 03:45:09;;;;;;;7.30;3.88;;;;;;;27.07;37.23;102124.50;4181963;28;20435;-62
2022/09/17 03:47:11;;;;;;;5.75;3.63;;;;;;;27.08;37.21;102131.81;4184142;28;20041;-63
2022/09/17 03:49:12;;;;;;;6.88;4.35;;;;;;;27.05;37.29;102126.78;4183828;28;20040;-63
2022/09/17 03:51:14;;;;;;;5.57;4.25;;;;;;;27.07;37.49;102135.72;4183321;28;20094;-63
2022/09/17 03:53:16;;;;;;;6.30;3.65;;;;;;;27.08;37.45;102131.81;4183215;28;20567;-62
2022/09/17 03:55:17;;;;;;;4.97;3.75;;;;;;;27.08;37.45;102129.00;4200086;28;20099;-63
2022/09/17 03:57:18;;;;;;;5.40;3.72;;;;;;;27.11;37.45;102125.63;4200782;28;20067;-61
2022/09/17 03:59:20;;;;;;;6.65;3.67;;;;;;;27.10;37.33;102129.56;4200126;28;20146;-63
2022/09/17 04:01:21;;;;;;;5.03;3.70;;;;;;;27.09;37.39;102116.66;4200312;28;20102;-62
2022/09/17 04:03:23;;;;;;;4.90;3.53;;;;;;;27.10;37.59;102123.94;4200122;28;20040;-63
2022/09/17 04:05:25;;;;;;;4.57;3.53;;;;;;;27.09;37.50;102133.53;4200064;28;20044;-63
2022/09/17 04:07:26;;;;;;;7.15;4.18;;;;;;;27.03;37.69;102120.59;4200454;28;20373;-63
2022/09/17 04:09:27;;;;;;;5.82;3.28;;;;;;;27.09;37.33;102139.13;4200182;28;20098;-63
2022/09/17 04:11:29;;;;;;;7.20;3.63;;;;;;;27.09;37.66;102130.72;4199974;28;20105;-63
2022/09/17 04:13:30;;;;;;;4.82;3.65;;;;;;;27.08;37.44;102138.31;4200315;28;20044;-63
2022/09/17 04:15:31;;;;;;;4.28;3.80;;;;;;;26.88;37.36;102093.50;4200000;28;20090;-63
2022/09/17 04:17:32;;;;;;;5.10;3.35;;;;;;;27.11;37.22;102125.63;4200203;28;20093;-62
2022/09/17 04:19:34;;;;;;;5.28;3.67;;;;;;;27.11;37.65;102125.63;4198837;28;20427;-62
2022/09/17 04:21:35;;;;;;;4.70;3.70;;;;;;;27.12;37.35;102127.28;4199578;28;20048;-62
2022/09/17 04:23:39;;;;;;;4.00;3.50;;;;;;;27.10;37.31;102130.41;4200376;28;20512;-62
2022/09/17 04:25:41;;;;;;;3.63;3.20;;;;;;;27.10;37.45;102123.94;4200237;28;20036;-62
2022/09/17 04:27:43;;;;;;;6.28;3.80;;;;;;;27.12;37.40;102124.47;4200403;28;20082;-62
2022/09/17 04:29:44;;;;;;;3.83;3.17;;;;;;;27.14;37.72;102125.03;4199801;28;20365;-63
2022/09/17 04:31:45;;;;;;;5.88;3.42;;;;;;;27.07;37.53;102114.09;4198775;28;20468;-62
2022/09/17 04:33:47;;;;;;;5.15;3.60;;;;;;;27.11;37.57;102125.63;4200275;28;20529;-62
2022/09/17 04:35:48;;;;;;;3.83;3.40;;;;;;;27.01;37.64;102103.22;4199850;28;20048;-62
2022/09/17 04:37:54;;;;;;;4.80;3.63;;;;;;;27.10;37.54;102123.94;4200104;28;20033;-62
2022/09/17 04:39:56;;;;;;;4.78;4.07;;;;;;;27.07;37.49;102124.50;4199648;28;20442;-62
2022/09/17 04:41:57;;;;;;;5.10;3.88;;;;;;;27.11;37.75;102129.25;4199177;28;20041;-62
2022/09/17 04:44:01;;;;;;;4.53;3.40;;;;;;;27.08;37.59;102123.38;4199909;28;20041;-62
2022/09/17 04:46:02;;;;;;;5.60;3.70;;;;;;;27.11;37.47;102131.25;4199948;28;20037;-62
2022/09/17 04:48:04;;;;;;;4.60;3.47;;;;;;;27.10;38.00;102138.00;4199775;28;20273;-62
2022/09/17 04:50:05;;;;;;;7.38;3.70;;;;;;;26.92;37.74;102104.97;4199437;28;20648;-62
2022/09/17 04:52:07;;;;;;;6.15;3.47;;;;;;;27.10;37.81;102143.63;4199685;28;20468;-62
2022/09/17 04:54:08;;;;;;;4.18;3.63;;;;;;;27.08;37.76;102135.50;4199903;28;20538;-62
2022/09/17 04:56:09;;;;;;;4.75;3.75;;;;;;;27.07;38.01;102139.38;4198838;28;20040;-62
2022/09/17 04:58:11;;;;;;;6.35;3.47;;;;;;;27.08;37.33;102140.25;4194778;28;20089;-62
2022/09/17 05:00:14;;;;;;;5.03;3.40;;;;;;;26.97;37.73;102114.19;4205841;28;20483;-63
2022/09/17 05:02:15;;;;;;;7.55;4.30;;;;;;;27.11;37.85;102136.84;4207461;28;20415;-62
2022/09/17 05:04:16;;;;;;;9.23;4.30;;;;;;;27.09;37.99;102136.31;4183001;28;20044;-62
2022/09/17 05:06:17;;;;;;;46.08;6.93;;;;;;;27.12;37.85;102138.53;4182714;28;20370;-62
2022/09/17 05:08:21;;;;;;;13.95;4.72;;;;;;;27.13;37.51;102145.00;4182625;28;20488;-62
2022/09/17 05:10:28;;;;;;;6.75;3.92;;;;;;;27.11;38.03;102148.09;4182990;28;20040;-61
2022/09/17 05:12:30;;;;;;;6.20;4.63;;;;;;;27.11;37.73;102143.31;4182048;28;20044;-61
2022/09/17 05:14:36;;;;;;;8.23;4.40;;;;;;;27.11;37.95;102145.28;4182883;28;20044;-61
2022/09/17 05:16:37;;;;;;;7.22;4.05;;;;;;;27.08;37.95;102145.88;4199183;28;20036;-62
2022/09/17 05:18:39;;;;;;;7.40;4.30;;;;;;;26.88;38.17;102115.13;4198428;28;20044;-62
2022/09/17 05:20:41;;;;;;;5.50;3.85;;;;;;;27.10;37.69;102160.47;4182391;28;20621;-62
2022/09/17 05:22:48;;;;;;;7.45;4.15;;;;;;;27.09;37.97;102156.00;4181846;28;20057;-62
2022/09/17 05:24:49;;;;;;;8.10;3.88;;;;;;;27.08;38.05;102165.53;4182308;28;20107;-63
2022/09/17 05:26:50;;;;;;;6.32;3.67;;;;;;;27.07;37.82;102164.66;4182686;28;20091;-62
2022/09/17 05:28:52;;;;;;;4.88;3.85;;;;;;;27.08;38.01;102165.53;4182482;28;20087;-62
2022/09/17 05:30:53;;;;;;;5.50;3.72;;;;;;;27.07;38.03;102163.81;4182768;28;20037;-62
2022/09/17 05:32:59;;;;;;;7.15;4.00;;;;;;;27.06;38.30;102174.22;4182485;28;20033;-62
2022/09/17 05:35:00;;;;;;;9.45;4.28;;;;;;;27.08;37.81;102171.16;4182537;28;20439;-61
2022/09/17 05:37:01;;;;;;;3.97;3.58;;;;;;;27.08;37.72;102163.59;4182780;28;20041;-61
2022/09/17 05:39:03;;;;;;;5.68;3.95;;;;;;;27.04;38.05;102159.66;4182550;28;20036;-62
2022/09/17 05:41:05;;;;;;;4.88;3.80;;;;;;;26.88;38.18;102141.22;4182395;28;20075;-62
2022/09/17 05:43:09;;;;;;;6.55;3.72;;;;;;;27.07;38.22;102172.25;4182464;28;20045;-62
2022/09/17 05:45:10;;;;;;;5.53;4.15;;;;;;;27.05;38.27;102166.09;4182037;28;20467;-62
2022/09/17 05:47:12;;;;;;;6.05;4.20;;;;;;;27.06;37.98;102170.59;4181978;28;20476;-62
2022/09/17 05:49:16;;;;;;;6.57;3.70;;;;;;;26.82;38.22;102123.59;4213295;28;20044;-62
2022/09/17 05:51:18;;;;;;;5.93;3.60;;;;;;;27.05;38.34;102166.09;4210864;28;20101;-62
2022/09/17 05:53:19;;;;;;;6.10;4.15;;;;;;;26.95;38.02;102149.34;4192139;28;20041;-62
2022/09/17 05:55:22;;;;;;;5.78;3.70;;;;;;;27.06;37.83;102165.81;4203677;28;20101;-64
2022/09/17 05:57:24;;;;;;;6.70;4.13;;;;;;;27.02;37.93;102161.06;4210340;28;20031;-62
2022/09/17 05:59:25;;;;;;;5.90;3.83;;;;;;;27.06;38.27;102167.78;4203140;28;20078;-62
2022/09/17 06:01:29;;;;;;;6.50;4.32;;;;;;;27.00;38.06;102158.56;4198062;28;20105;-62
2022/09/17 06:03:30;;;;;;;7.57;4.55;;;;;;;27.05;38.17;102163.28;4198509;28;20377;-62
2022/09/17 06:05:34;;;;;;;8.57;4.40;;;;;;;27.09;37.90;102168.06;4198282;28;20414;-62
2022/09/17 06:07:37;;;;;;;9.07;4.87;;;;;;;27.09;37.90;102156.00;4198394;28;20049;-62
2022/09/17 06:09:41;;;;;;;10.73;5.72;;;;;;;27.06;38.08;102150.91;4197470;28;20644;-62
2022/09/17 06:11:43;;;;;;;12.52;6.35;;;;;;;27.07;38.09;102155.41;4181879;28;20091;-62
2022/09/17 06:13:45;;;;;;;10.50;5.97;;;;;;;27.07;38.19;102159.03;4181473;28;20094;-63
2022/09/17 06:15:53;;;;;;;23.58;8.90;;;;;;;26.83;38.01;102124.44;4181961;28;20037;-63
2022/09/17 06:17:54;;;;;;;15.90;6.93;;;;;;;27.07;37.91;102155.41;4181899;28;20045;-62
2022/09/17 06:19:55;;;;;;;19.55;8.57;;;;;;;27.06;38.22;102148.94;4181653;28;20041;-63
2022/09/17 06:21:57;;;;;;;24.08;10.32;;;;;;;27.05;38.12;102149.25;4181707;28;20053;-63
2022/09/17 06:23:59;;;;;;;75.65;28.05;;;;;;;27.05;37.34;102166.09;4181675;28;20090;-63
2022/09/17 06:26:02;;;;;;;40.55;14.38;;;;;;;27.03;37.79;102157.13;4181158;28;20067;-63
2022/09/17 06:28:03;;;;;;;47.40;14.57;;;;;;;27.05;37.77;102154.88;4181774;28;20036;-63
2022/09/17 06:30:08;;;;;;;56.25;23.65;;;;;;;27.06;37.67;102163.00;4181787;28;20041;-63
2022/09/17 06:32:11;;;;;;;67.70;24.13;;;;;;;27.09;37.45;102161.63;4181473;28;20106;-64
2022/09/17 06:34:13;;;;;;;52.08;20.02;;;;;;;27.01;37.76;102153.78;4181424;28;20049;-62
2022/09/17 06:36:14;;;;;;;59.40;21.88;;;;;;;26.99;37.78;102153.25;4181744;28;20044;-63
2022/09/17 06:38:16;;;;;;;60.85;21.85;;;;;;;27.09;37.79;102161.63;4181630;28;20098;-64
2022/09/17 06:40:22;;;;;;;62.63;24.88;;;;;;;27.00;37.66;102140.88;4181573;28;20381;-63
2022/09/17 06:42:27;;;;;;;60.38;23.23;;;;;;;27.09;37.81;102167.22;4180462;28;20091;-64
2022/09/17 06:44:31;;;;;;;81.95;30.23;;;;;;;27.13;37.29;102162.72;4187208;28;20122;-63
2022/09/17 06:46:32;;;;;;;72.55;30.17;;;;;;;27.14;37.53;102175.63;4197950;28;20098;-63
2022/09/17 06:48:35;;;;;;;99.05;38.40;;;;;;;27.14;37.48;102181.22;4195010;28;20468;-63
2022/09/17 06:50:36;;;;;;;79.80;32.47;;;;;;;27.15;37.50;102174.47;4181457;28;20099;-63
2022/09/17 06:52:38;;;;;;;95.13;37.40;;;;;;;27.16;37.56;102166.88;4181161;28;20451;-63
2022/09/17 06:54:42;;;;;;;113.85;42.08;;;;;;;27.18;37.19;102170.25;4181174;28;20155;-64
2022/09/17 06:56:45;;;;;;;83.95;33.35;;;;;;;27.16;37.43;102178.13;4181220;28;20032;-63
2022/09/17 06:58:47;;;;;;;86.22;35.15;;;;;;;27.15;37.54;102174.47;4181394;28;20028;-63
2022/09/17 07:00:51;;;;;;;68.50;26.92;;;;;;;27.15;37.90;102173.63;4190999;28;20087;-63
2022/09/17 07:02:57;;;;;;;47.22;19.60;;;;;;;27.12;37.98;102163.81;4187700;28;20427;-63
2022/09/17 07:04:58;;;;;;;45.00;18.33;;;;;;;27.13;38.09;102173.94;4196675;28;20040;-63
2022/09/17 07:07:04;;;;;;;52.30;20.98;;;;;;;27.13;37.83;102173.94;4189962;28;20102;-63
2022/09/17 07:09:06;;;;;;;51.75;21.45;;;;;;;27.13;37.96;102178.72;4181182;28;20041;-63
2022/09/17 07:11:10;;;;;;;59.75;25.67;;;;;;;27.11;38.02;102170.56;4180907;28;20037;-63
2022/09/17 07:13:11;;;;;;;54.60;22.40;;;;;;;27.13;37.99;102178.72;4182473;28;20044;-63
2022/09/17 07:15:15;;;;;;;55.58;22.58;;;;;;;27.14;38.19;102180.41;4188113;28;20094;-63
2022/09/17 07:17:16;;;;;;;58.10;24.45;;;;;;;26.96;37.90;102139.78;4197722;28;20040;-63
2022/09/17 07:19:17;;;;;;;72.00;28.30;;;;;;;27.11;37.91;102162.97;4190492;28;20036;-62
2022/09/17 07:21:19;;;;;;;64.60;27.30;;;;;;;27.15;37.89;102171.66;4197950;28;20045;-62
2022/09/17 07:23:22;;;;;;;63.58;27.17;;;;;;;27.13;37.72;102179.56;4201111;28;20114;-62
2022/09/17 07:25:25;;;;;;;69.07;27.02;;;;;;;27.15;37.87;102170.84;4204628;28;20024;-62
2022/09/17 07:27:28;;;;;;;70.22;27.85;;;;;;;27.09;37.75;102172.84;4201168;28;20032;-62
2022/09/17 07:29:31;;;;;;;62.95;24.83;;;;;;;27.15;37.99;102180.09;4197802;28;20086;-62
2022/09/17 07:31:32;;;;;;;67.50;28.75;;;;;;;27.15;37.99;102177.28;4200415;28;20067;-62
2022/09/17 07:33:35;;;;;;;68.03;25.83;;;;;;;27.14;37.90;102181.22;4198362;28;20036;-62
2022/09/17 07:35:36;;;;;;;59.92;25.48;;;;;;;27.15;37.87;102176.44;4196668;28;20415;-62
2022/09/17 07:37:44;;;;;;;61.05;24.67;;;;;;;27.10;38.16;102168.91;4193970;28;20041;-62
2022/09/17 07:39:48;;;;;;;64.70;25.30;;;;;;;27.14;38.07;102180.41;4180873;28;20087;-64
2022/09/17 07:41:52;;;;;;;58.47;26.00;;;;;;;27.13;38.09;102171.13;4180906;28;20033;-64
2022/09/17 07:43:54;;;;;;;72.85;28.45;;;;;;;27.16;38.10;102180.94;4181079;28;20067;-62
2022/09/17 07:45:59;;;;;;;60.38;25.45;;;;;;;27.14;38.19;102175.63;4180753;28;20033;-62
2022/09/17 07:48:03;;;;;;;59.38;25.38;;;;;;;27.15;38.23;102176.44;4196272;28;20114;-63
2022/09/17 07:50:05;;;;;;;65.43;26.00;;;;;;;27.10;38.13;102171.72;4197610;28;20049;-62
2022/09/17 07:52:12;;;;;;;69.75;27.55;;;;;;;27.13;38.14;102176.75;4191583;28;20078;-62
2022/09/17 07:54:13;;;;;;;76.13;29.77;;;;;;;27.14;38.22;102181.22;4188465;28;20093;-62
2022/09/17 07:56:15;;;;;;;73.85;31.30;;;;;;;27.08;37.99;102166.41;4208029;28;20033;-63
2022/09/17 07:58:19;;;;;;;71.22;31.60;;;;;;;27.15;37.63;102182.91;4195836;28;20045;-62
2022/09/17 08:00:21;;;;;;;80.85;32.47;;;;;;;27.14;37.77;102181.22;4200436;28;20036;-62
2022/09/17 08:02:22;;;;;;;70.40;28.55;;;;;;;27.14;37.85;102186.84;4213482;28;20040;-62
2022/09/17 08:04:23;;;;;;;76.07;31.65;;;;;;;27.14;38.14;102186.03;4212662;28;20074;-62
2022/09/17 08:06:27;;;;;;;73.07;30.77;;;;;;;27.15;38.17;102188.53;4213360;28;20040;-62
2022/09/17 08:08:30;;;;;;;100.38;38.97;;;;;;;27.14;37.79;102186.84;4212032;28;20047;-62
2022/09/17 08:10:32;;;;;;;93.25;37.25;;;;;;;27.15;37.59;102187.69;4180787;28;20420;-62
2022/09/17 08:12:36;;;;;;;46.38;22.20;;;;;;;27.13;38.43;102189.97;4189179;28;20062;-62
2022/09/17 08:14:38;;;;;;;72.53;30.08;;;;;;;26.95;38.22;102155.78;4213768;28;20097;-63
2022/09/17 08:16:40;;;;;;;61.90;26.70;;;;;;;27.08;38.15;102182.38;4213909;28;20028;-62
2022/09/17 08:18:42;;;;;;;64.30;27.80;;;;;;;26.90;38.04;102158.66;4213598;28;20040;-62
2022/09/17 08:20:43;;;;;;;81.65;35.30;;;;;;;27.11;38.03;102181.81;4209736;28;20036;-62
2022/09/17 08:22:45;;;;;;;63.92;26.38;;;;;;;27.12;38.02;102191.91;4195846;28;20098;-62
2022/09/17 08:24:49;;;;;;;61.13;27.67;;;;;;;27.11;38.24;102182.66;4194669;28;20041;-63
2022/09/17 08:26:50;;;;;;;69.70;29.43;;;;;;;27.11;37.98;102193.06;4185058;28;20162;-62
2022/09/17 08:28:55;;;;;;;56.95;25.88;;;;;;;27.11;38.30;102190.25;4193966;28;20319;-62
2022/09/17 08:31:05;;;;;;;54.00;24.50;;;;;;;26.89;38.22;102161.72;4196773;28;20533;-62
2022/09/17 08:33:06;;;;;;;59.88;27.63;;;;;;;27.06;38.01;102190.25;4199594;28;20449;-61
2022/09/17 08:35:08;;;;;;;65.70;27.27;;;;;;;27.08;37.94;102188.00;4199814;28;20472;-62
2022/09/17 08:37:09;;;;;;;64.70;27.77;;;;;;;27.06;38.10;102195.88;4199657;28;20070;-62
2022/09/17 08:39:11;;;;;;;55.28;24.58;;;;;;;27.05;38.10;102199.81;4200146;28;20093;-62
2022/09/17 08:41:50;;;;;;;58.20;27.17;;;;;;;26.98;38.51;102193.69;4199536;28;20037;-62
2022/09/17 08:44:05;;;;;;;60.35;25.33;;;;;;;27.06;37.99;102204.31;4187404;28;20107;-62
2022/09/17 08:46:11;;;;;;;56.13;26.13;;;;;;;27.06;38.27;102201.50;4183368;28;20091;-62
2022/09/17 08:48:14;;;;;;;61.17;26.45;;;;;;;26.96;38.17;102184.72;4183305;28;20029;-62
2022/09/17 08:50:32;;;;;;;56.30;24.65;;;;;;;26.83;38.06;102175.81;4204230;28;20040;-62
2022/09/17 08:52:58;;;;;;;62.78;26.92;;;;;;;27.03;38.21;102205.75;4215927;28;20085;-62
2022/09/17 08:55:10;;;;;;;60.90;25.10;;;;;;;27.03;37.98;102207.69;4214376;28;20048;-62
2022/09/17 08:58:05;;;;;;;54.45;23.83;;;;;;;27.02;38.20;102200.41;4199364;28;20435;-62
2022/09/17 09:00:15;;;;;;;61.35;24.75;;;;;;;27.06;37.88;102210.75;4126422;28;20462;-62
2022/09/17 09:02:20;;;;;;;58.95;24.23;;;;;;;27.06;38.36;102207.09;4156641;28;20369;-62
2022/09/17 09:04:33;;;;;;;60.15;26.33;;;;;;;27.05;38.23;102211.06;4182361;28;20052;-62
2022/09/17 09:06:42;;;;;;;55.22;23.65;;;;;;;27.05;38.13;102216.69;4182940;28;20040;-62
2022/09/17 09:09:04;;;;;;;49.03;23.38;;;;;;;27.02;37.92;102217.25;4182329;28;20032;-62
2022/09/17 09:11:13;;;;;;;48.75;23.48;;;;;;;27.01;38.03;102216.41;4182367;28;20427;-62
2022/09/17 09:13:23;;;;;;;52.25;23.30;;;;;;;26.96;37.97;102210.00;4183199;28;20082;-62
2022/09/17 09:15:35;;;;;;;50.53;22.75;;;;;;;27.00;38.11;102213.91;4182071;28;20473;-62
2022/09/17 09:17:48;;;;;;;43.95;19.77;;;;;;;26.82;38.33;102187.34;4183239;28;20071;-62
2022/09/17 09:19:51;;;;;;;49.08;23.30;;;;;;;26.99;38.20;102229.94;4181237;28;20417;-62
2022/09/17 09:22:17;;;;;;;53.55;23.98;;;;;;;27.00;37.99;102230.75;4182555;28;20045;-62
2022/09/17 09:24:23;;;;;;;45.78;21.70;;;;;;;27.02;38.33;102231.31;4182536;28;20492;-62
2022/09/17 09:26:56;;;;;;;47.25;21.95;;;;;;;27.00;37.96;102237.22;4182224;28;20097;-62
2022/09/17 09:29:05;;;;;;;43.38;21.25;;;;;;;26.29;38.29;102106.50;4189247;28;20040;-62
2022/09/17 09:31:26;;;;;;;54.92;25.00;;;;;;;27.02;37.83;102234.09;4191723;28;20033;-62
2022/09/17 09:33:36;;;;;;;50.00;22.13;;;;;;;27.01;38.18;102229.63;4185092;28;20041;-62
2022/09/17 09:35:41;;;;;;;48.33;21.67;;;;;;;27.04;37.88;102237.47;4185782;28;20102;-62
2022/09/17 09:37:51;;;;;;;;;;;;;;;27.03;38.14;102241.41;4199179;28;20040;-62
2022/09/17 09:40:00;;;;;;;45.55;20.77;;;;;;;27.01;38.05;102232.44;4197325;28;19962;-62
2022/09/17 09:42:13;;;;;;;44.47;21.23;;;;;;;27.06;38.18;102241.66;4182015;28;20037;-62
2022/09/17 09:44:19;;;;;;;39.47;19.40;;;;;;;26.95;37.98;102228.00;4181921;28;20052;-62